sensor_id;sensor_type;location;lat;lon;timestamp;temperature;humidity
51884;DHT22;37915;53.254;6.598;2023-04-15T00:01:22;5.70;99.90
51884;DHT22;37915;53.254;6.598;2023-04-15T00:03:51;5.70;99.90
51884;DHT22;37915;53.254;6.598;2023-04-15T00:06:18;5.70;99.90
51884;DHT22;37915;53.254;6.598;2023-04-15T00:08:44;5.70;99.90
51884;DHT22;37915;53.254;6.598;2023-04-15T00:11:10;5.60;99.90
51884;DHT22;37915;53.254;6.598;2023-04-15T00:13:37;5.60;99.90
51884;DHT22;37915;53.254;6.598;2023-04-15T00:16:03;5.90;99.90
51884;DHT22;37915;53.254;6.598;2023-04-15T00:18:28;5.50;99.90
51884;DHT22;37915;53.254;6.598;2023-04-15T00:20:54;6.10;99.90
51884;DHT22;37915;53.254;6.598;2023-04-15T00:23:20;6.20;99.90
51884;DHT22;37915;53.254;6.598;2023-04-15T00:25:46;5.80;99.90
51884;DHT22;37915;53.254;6.598;2023-04-15T00:28:12;5.40;99.90
51884;DHT22;37915;53.254;6.598;2023-04-15T00:30:38;5.60;99.90
51884;DHT22;37915;53.254;6.598;2023-04-15T00:33:04;5.50;99.90
51884;DHT22;37915;53.254;6.598;2023-04-15T00:35:30;5.30;99.90
51884;DHT22;37915;53.254;6.598;2023-04-15T00:37:58;5.30;99.90
51884;DHT22;37915;53.254;6.598;2023-04-15T00:40:24;5.40;99.90
51884;DHT22;37915;53.254;6.598;2023-04-15T00:42:50;5.30;99.90
51884;DHT22;37915;53.254;6.598;2023-04-15T00:45:17;5.20;99.90
51884;DHT22;37915;53.254;6.598;2023-04-15T00:47:43;5.20;99.90
51884;DHT22;37915;53.254;6.598;2023-04-15T00:50:10;5.20;99.90
51884;DHT22;37915;53.254;6.598;2023-04-15T00:52:37;5.10;99.90
51884;DHT22;37915;53.254;6.598;2023-04-15T00:55:04;5.40;99.90
51884;DHT22;37915;53.254;6.598;2023-04-15T00:57:30;5.10;99.90
51884;DHT22;37915;53.254;6.598;2023-04-15T00:59:56;5.40;99.90
51884;DHT22;37915;53.254;6.598;2023-04-15T01:02:22;5.20;99.90
51884;DHT22;37915;53.254;6.598;2023-04-15T01:04:48;5.10;99.90
51884;DHT22;37915;53.254;6.598;2023-04-15T01:07:14;5.00;99.90
51884;DHT22;37915;53.254;6.598;2023-04-15T01:09:40;5.20;99.90
51884;DHT22;37915;53.254;6.598;2023-04-15T01:12:07;5.00;99.90
51884;DHT22;37915;53.254;6.598;2023-04-15T01:14:34;5.20;99.90
51884;DHT22;37915;53.254;6.598;2023-04-15T01:17:00;4.90;99.90
51884;DHT22;37915;53.254;6.598;2023-04-15T01:19:27;4.90;99.90
51884;DHT22;37915;53.254;6.598;2023-04-15T01:21:53;4.90;99.90
51884;DHT22;37915;53.254;6.598;2023-04-15T01:24:19;4.80;99.90
51884;DHT22;37915;53.254;6.598;2023-04-15T01:26:45;4.80;99.90
51884;DHT22;37915;53.254;6.598;2023-04-15T01:29:12;5.20;99.90
51884;DHT22;37915;53.254;6.598;2023-04-15T01:31:37;4.80;99.90
51884;DHT22;37915;53.254;6.598;2023-04-15T01:34:03;4.90;99.90
51884;DHT22;37915;53.254;6.598;2023-04-15T01:36:29;4.80;99.90
51884;DHT22;37915;53.254;6.598;2023-04-15T01:38:55;4.70;99.90
51884;DHT22;37915;53.254;6.598;2023-04-15T01:41:30;5.40;99.90
51884;DHT22;37915;53.254;6.598;2023-04-15T01:43:57;4.80;99.90
51884;DHT22;37915;53.254;6.598;2023-04-15T01:46:22;4.80;99.90
51884;DHT22;37915;53.254;6.598;2023-04-15T01:48:48;4.70;99.90
51884;DHT22;37915;53.254;6.598;2023-04-15T01:51:14;4.90;99.90
51884;DHT22;37915;53.254;6.598;2023-04-15T01:53:40;4.80;99.90
51884;DHT22;37915;53.254;6.598;2023-04-15T01:56:06;4.80;99.90
51884;DHT22;37915;53.254;6.598;2023-04-15T01:58:31;4.60;99.90
51884;DHT22;37915;53.254;6.598;2023-04-15T02:00:57;4.50;99.90
51884;DHT22;37915;53.254;6.598;2023-04-15T02:03:24;4.50;99.90
51884;DHT22;37915;53.254;6.598;2023-04-15T02:05:49;4.50;99.90
51884;DHT22;37915;53.254;6.598;2023-04-15T02:08:15;4.50;99.90
51884;DHT22;37915;53.254;6.598;2023-04-15T02:10:41;4.50;99.90
51884;DHT22;37915;53.254;6.598;2023-04-15T02:13:07;4.40;99.90
51884;DHT22;37915;53.254;6.598;2023-04-15T02:15:33;4.90;99.90
51884;DHT22;37915;53.254;6.598;2023-04-15T02:17:59;4.80;99.90
51884;DHT22;37915;53.254;6.598;2023-04-15T02:20:26;4.80;99.90
51884;DHT22;37915;53.254;6.598;2023-04-15T02:22:52;5.70;99.90
51884;DHT22;37915;53.254;6.598;2023-04-15T02:25:17;4.70;99.90
51884;DHT22;37915;53.254;6.598;2023-04-15T02:27:44;4.40;99.90
51884;DHT22;37915;53.254;6.598;2023-04-15T02:30:10;4.40;99.90
51884;DHT22;37915;53.254;6.598;2023-04-15T02:32:36;4.40;99.90
51884;DHT22;37915;53.254;6.598;2023-04-15T02:35:07;4.40;99.90
51884;DHT22;37915;53.254;6.598;2023-04-15T02:37:34;4.40;99.90
51884;DHT22;37915;53.254;6.598;2023-04-15T02:40:07;4.40;99.90
51884;DHT22;37915;53.254;6.598;2023-04-15T02:42:32;4.40;99.90
51884;DHT22;37915;53.254;6.598;2023-04-15T02:44:58;4.40;99.90
51884;DHT22;37915;53.254;6.598;2023-04-15T02:47:24;4.80;99.90
51884;DHT22;37915;53.254;6.598;2023-04-15T02:49:49;4.40;99.90
51884;DHT22;37915;53.254;6.598;2023-04-15T02:52:15;4.30;99.90
51884;DHT22;37915;53.254;6.598;2023-04-15T02:54:41;4.30;99.90
51884;DHT22;37915;53.254;6.598;2023-04-15T02:57:06;4.80;99.90
51884;DHT22;37915;53.254;6.598;2023-04-15T02:59:32;4.70;99.90
51884;DHT22;37915;53.254;6.598;2023-04-15T03:01:58;4.90;99.90
51884;DHT22;37915;53.254;6.598;2023-04-15T03:04:25;4.20;99.90
51884;DHT22;37915;53.254;6.598;2023-04-15T03:06:51;4.20;99.90
51884;DHT22;37915;53.254;6.598;2023-04-15T03:09:17;4.20;99.90
51884;DHT22;37915;53.254;6.598;2023-04-15T03:11:43;4.20;99.90
51884;DHT22;37915;53.254;6.598;2023-04-15T03:14:08;4.20;99.90
51884;DHT22;37915;53.254;6.598;2023-04-15T03:16:34;4.50;99.90
51884;DHT22;37915;53.254;6.598;2023-04-15T03:19:00;4.20;99.90
51884;DHT22;37915;53.254;6.598;2023-04-15T03:21:25;4.70;99.90
51884;DHT22;37915;53.254;6.598;2023-04-15T03:23:52;4.20;99.90
51884;DHT22;37915;53.254;6.598;2023-04-15T03:26:28;4.10;99.90
51884;DHT22;37915;53.254;6.598;2023-04-15T03:28:54;5.00;99.90
51884;DHT22;37915;53.254;6.598;2023-04-15T03:31:20;4.10;99.90
51884;DHT22;37915;53.254;6.598;2023-04-15T03:33:46;4.10;99.90
51884;DHT22;37915;53.254;6.598;2023-04-15T03:36:11;4.10;99.90
51884;DHT22;37915;53.254;6.598;2023-04-15T03:38:37;4.10;99.90
51884;DHT22;37915;53.254;6.598;2023-04-15T03:41:03;4.10;99.90
51884;DHT22;37915;53.254;6.598;2023-04-15T03:43:29;4.00;99.90
51884;DHT22;37915;53.254;6.598;2023-04-15T03:45:55;4.10;99.90
51884;DHT22;37915;53.254;6.598;2023-04-15T03:48:21;4.00;99.90
51884;DHT22;37915;53.254;6.598;2023-04-15T03:50:46;4.00;99.90
51884;DHT22;37915;53.254;6.598;2023-04-15T03:53:12;5.10;99.90
51884;DHT22;37915;53.254;6.598;2023-04-15T03:55:38;4.40;99.90
51884;DHT22;37915;53.254;6.598;2023-04-15T03:58:04;5.40;99.90
51884;DHT22;37915;53.254;6.598;2023-04-15T04:00:30;4.00;99.90
51884;DHT22;37915;53.254;6.598;2023-04-15T04:02:55;5.10;99.90
51884;DHT22;37915;53.254;6.598;2023-04-15T04:05:21;5.20;99.90
51884;DHT22;37915;53.254;6.598;2023-04-15T04:07:47;4.10;99.90
51884;DHT22;37915;53.254;6.598;2023-04-15T04:10:13;4.60;99.90
51884;DHT22;37915;53.254;6.598;2023-04-15T04:12:39;4.10;99.90
51884;DHT22;37915;53.254;6.598;2023-04-15T04:15:05;5.10;99.90
51884;DHT22;37915;53.254;6.598;2023-04-15T04:17:31;4.00;99.90
51884;DHT22;37915;53.254;6.598;2023-04-15T04:19:57;4.00;99.90
51884;DHT22;37915;53.254;6.598;2023-04-15T04:22:23;4.70;99.90
51884;DHT22;37915;53.254;6.598;2023-04-15T04:24:49;4.40;99.90
51884;DHT22;37915;53.254;6.598;2023-04-15T04:27:15;4.00;99.90
51884;DHT22;37915;53.254;6.598;2023-04-15T04:29:40;4.20;99.90
51884;DHT22;37915;53.254;6.598;2023-04-15T04:32:06;4.80;99.90
51884;DHT22;37915;53.254;6.598;2023-04-15T04:34:32;3.90;99.90
51884;DHT22;37915;53.254;6.598;2023-04-15T04:36:57;3.90;99.90
51884;DHT22;37915;53.254;6.598;2023-04-15T04:39:23;3.90;99.90
51884;DHT22;37915;53.254;6.598;2023-04-15T04:41:49;4.00;99.90
51884;DHT22;37915;53.254;6.598;2023-04-15T04:44:16;3.90;99.90
51884;DHT22;37915;53.254;6.598;2023-04-15T04:46:42;3.90;99.90
51884;DHT22;37915;53.254;6.598;2023-04-15T04:49:08;4.10;99.90
51884;DHT22;37915;53.254;6.598;2023-04-15T04:51:34;4.70;99.90
51884;DHT22;37915;53.254;6.598;2023-04-15T04:54:00;3.90;99.90
51884;DHT22;37915;53.254;6.598;2023-04-15T04:56:25;3.90;99.90
51884;DHT22;37915;53.254;6.598;2023-04-15T04:58:51;3.90;99.90
51884;DHT22;37915;53.254;6.598;2023-04-15T05:01:17;3.90;99.90
51884;DHT22;37915;53.254;6.598;2023-04-15T05:03:43;3.90;99.90
51884;DHT22;37915;53.254;6.598;2023-04-15T05:06:09;3.90;99.90
51884;DHT22;37915;53.254;6.598;2023-04-15T05:08:35;4.80;99.90
51884;DHT22;37915;53.254;6.598;2023-04-15T05:11:01;3.90;99.90
51884;DHT22;37915;53.254;6.598;2023-04-15T05:13:27;4.10;99.90
51884;DHT22;37915;53.254;6.598;2023-04-15T05:15:54;4.50;99.90
51884;DHT22;37915;53.254;6.598;2023-04-15T05:18:21;4.00;99.90
51884;DHT22;37915;53.254;6.598;2023-04-15T05:20:46;5.10;99.90
51884;DHT22;37915;53.254;6.598;2023-04-15T05:23:14;4.20;99.90
51884;DHT22;37915;53.254;6.598;2023-04-15T05:25:40;4.30;99.90
51884;DHT22;37915;53.254;6.598;2023-04-15T05:28:06;4.30;99.90
51884;DHT22;37915;53.254;6.598;2023-04-15T05:30:32;4.10;99.90
51884;DHT22;37915;53.254;6.598;2023-04-15T05:32:58;4.20;99.90
51884;DHT22;37915;53.254;6.598;2023-04-15T05:35:23;4.70;99.90
51884;DHT22;37915;53.254;6.598;2023-04-15T05:37:49;4.30;99.90
51884;DHT22;37915;53.254;6.598;2023-04-15T05:40:15;4.60;99.90
51884;DHT22;37915;53.254;6.598;2023-04-15T05:42:40;4.40;99.90
51884;DHT22;37915;53.254;6.598;2023-04-15T05:45:06;5.20;99.90
51884;DHT22;37915;53.254;6.598;2023-04-15T05:47:34;4.60;99.90
51884;DHT22;37915;53.254;6.598;2023-04-15T05:50:01;5.00;99.90
51884;DHT22;37915;53.254;6.598;2023-04-15T05:52:26;4.80;99.90
51884;DHT22;37915;53.254;6.598;2023-04-15T05:54:52;4.80;99.90
51884;DHT22;37915;53.254;6.598;2023-04-15T05:57:18;5.60;99.90
51884;DHT22;37915;53.254;6.598;2023-04-15T05:59:43;5.00;99.90
51884;DHT22;37915;53.254;6.598;2023-04-15T06:02:09;5.40;99.90
51884;DHT22;37915;53.254;6.598;2023-04-15T06:04:35;5.20;99.90
51884;DHT22;37915;53.254;6.598;2023-04-15T06:07:01;5.20;99.90
51884;DHT22;37915;53.254;6.598;2023-04-15T06:09:27;5.30;99.90
51884;DHT22;37915;53.254;6.598;2023-04-15T06:11:53;5.40;99.90
51884;DHT22;37915;53.254;6.598;2023-04-15T06:14:19;5.50;99.90
51884;DHT22;37915;53.254;6.598;2023-04-15T06:16:45;5.50;99.90
51884;DHT22;37915;53.254;6.598;2023-04-15T06:19:11;6.30;99.90
51884;DHT22;37915;53.254;6.598;2023-04-15T06:21:37;5.80;99.90
51884;DHT22;37915;53.254;6.598;2023-04-15T06:24:02;5.80;99.90
51884;DHT22;37915;53.254;6.598;2023-04-15T06:26:28;5.90;99.90
51884;DHT22;37915;53.254;6.598;2023-04-15T06:28:54;6.00;99.90
51884;DHT22;37915;53.254;6.598;2023-04-15T06:31:20;6.20;99.90
51884;DHT22;37915;53.254;6.598;2023-04-15T06:33:46;6.30;99.90
51884;DHT22;37915;53.254;6.598;2023-04-15T06:36:11;6.40;99.90
51884;DHT22;37915;53.254;6.598;2023-04-15T06:38:37;6.50;99.90
51884;DHT22;37915;53.254;6.598;2023-04-15T06:41:03;6.60;99.90
51884;DHT22;37915;53.254;6.598;2023-04-15T06:43:29;6.80;99.90
51884;DHT22;37915;53.254;6.598;2023-04-15T06:45:55;6.90;99.90
51884;DHT22;37915;53.254;6.598;2023-04-15T06:48:21;7.00;99.90
51884;DHT22;37915;53.254;6.598;2023-04-15T06:50:48;7.10;99.90
51884;DHT22;37915;53.254;6.598;2023-04-15T06:53:14;7.20;99.90
51884;DHT22;37915;53.254;6.598;2023-04-15T06:55:40;7.40;99.90
51884;DHT22;37915;53.254;6.598;2023-04-15T06:58:06;7.40;99.90
51884;DHT22;37915;53.254;6.598;2023-04-15T07:00:32;7.50;99.90
51884;DHT22;37915;53.254;6.598;2023-04-15T07:03:03;7.60;99.90
51884;DHT22;37915;53.254;6.598;2023-04-15T07:05:29;7.70;99.90
51884;DHT22;37915;53.254;6.598;2023-04-15T07:07:57;6.80;99.90
51884;DHT22;37915;53.254;6.598;2023-04-15T07:10:22;7.80;99.90
51884;DHT22;37915;53.254;6.598;2023-04-15T07:12:48;7.80;99.90
51884;DHT22;37915;53.254;6.598;2023-04-15T07:15:15;7.80;99.90
51884;DHT22;37915;53.254;6.598;2023-04-15T07:17:41;7.90;99.90
51884;DHT22;37915;53.254;6.598;2023-04-15T07:20:10;7.90;99.90
51884;DHT22;37915;53.254;6.598;2023-04-15T07:22:36;8.00;99.90
51884;DHT22;37915;53.254;6.598;2023-04-15T07:25:01;8.00;99.90
51884;DHT22;37915;53.254;6.598;2023-04-15T07:27:27;8.00;99.90
51884;DHT22;37915;53.254;6.598;2023-04-15T07:29:53;8.10;99.90
51884;DHT22;37915;53.254;6.598;2023-04-15T07:32:18;8.10;99.90
51884;DHT22;37915;53.254;6.598;2023-04-15T07:34:44;8.20;99.90
51884;DHT22;37915;53.254;6.598;2023-04-15T07:37:10;8.20;99.90
51884;DHT22;37915;53.254;6.598;2023-04-15T07:39:36;8.20;99.90
51884;DHT22;37915;53.254;6.598;2023-04-15T07:42:02;8.20;99.90
51884;DHT22;37915;53.254;6.598;2023-04-15T07:44:28;8.20;99.90
51884;DHT22;37915;53.254;6.598;2023-04-15T07:46:55;8.20;99.90
51884;DHT22;37915;53.254;6.598;2023-04-15T07:49:22;8.20;99.90
51884;DHT22;37915;53.254;6.598;2023-04-15T07:51:48;8.30;99.90
51884;DHT22;37915;53.254;6.598;2023-04-15T07:54:15;8.40;99.90
51884;DHT22;37915;53.254;6.598;2023-04-15T07:56:41;8.40;99.90
51884;DHT22;37915;53.254;6.598;2023-04-15T07:59:07;8.40;99.90
51884;DHT22;37915;53.254;6.598;2023-04-15T08:01:34;8.50;99.90
51884;DHT22;37915;53.254;6.598;2023-04-15T08:04:00;8.40;99.90
51884;DHT22;37915;53.254;6.598;2023-04-15T08:06:25;8.40;99.90
51884;DHT22;37915;53.254;6.598;2023-04-15T08:08:52;8.40;99.90
51884;DHT22;37915;53.254;6.598;2023-04-15T08:11:19;8.40;99.90
51884;DHT22;37915;53.254;6.598;2023-04-15T08:13:45;8.40;99.90
51884;DHT22;37915;53.254;6.598;2023-04-15T08:16:22;8.40;99.90
51884;DHT22;37915;53.254;6.598;2023-04-15T08:18:50;8.30;99.90
51884;DHT22;37915;53.254;6.598;2023-04-15T08:21:17;8.30;99.90
51884;DHT22;37915;53.254;6.598;2023-04-15T08:23:45;8.30;99.90
51884;DHT22;37915;53.254;6.598;2023-04-15T08:26:11;8.30;99.90
51884;DHT22;37915;53.254;6.598;2023-04-15T08:28:39;8.30;99.90
51884;DHT22;37915;53.254;6.598;2023-04-15T08:31:05;8.30;99.90
51884;DHT22;37915;53.254;6.598;2023-04-15T08:33:30;8.20;99.90
51884;DHT22;37915;53.254;6.598;2023-04-15T08:35:56;8.30;99.90
51884;DHT22;37915;53.254;6.598;2023-04-15T08:38:22;8.20;99.90
51884;DHT22;37915;53.254;6.598;2023-04-15T08:40:48;8.20;99.90
51884;DHT22;37915;53.254;6.598;2023-04-15T08:43:21;8.20;99.90
51884;DHT22;37915;53.254;6.598;2023-04-15T08:45:53;8.20;99.90
51884;DHT22;37915;53.254;6.598;2023-04-15T08:48:19;8.20;99.90
51884;DHT22;37915;53.254;6.598;2023-04-15T08:50:46;8.30;99.90
51884;DHT22;37915;53.254;6.598;2023-04-15T08:53:13;8.40;99.90
51884;DHT22;37915;53.254;6.598;2023-04-15T08:55:42;8.40;99.90
51884;DHT22;37915;53.254;6.598;2023-04-15T08:58:12;8.50;99.90
51884;DHT22;37915;53.254;6.598;2023-04-15T09:00:39;8.50;99.90
51884;DHT22;37915;53.254;6.598;2023-04-15T09:03:05;8.50;99.90
51884;DHT22;37915;53.254;6.598;2023-04-15T09:05:33;8.50;99.90
51884;DHT22;37915;53.254;6.598;2023-04-15T09:07:59;8.50;99.90
51884;DHT22;37915;53.254;6.598;2023-04-15T09:10:25;8.50;99.90
51884;DHT22;37915;53.254;6.598;2023-04-15T09:12:51;8.50;99.90
51884;DHT22;37915;53.254;6.598;2023-04-15T09:15:17;8.60;99.90
51884;DHT22;37915;53.254;6.598;2023-04-15T09:17:43;8.60;99.90
51884;DHT22;37915;53.254;6.598;2023-04-15T09:20:11;8.70;99.90
51884;DHT22;37915;53.254;6.598;2023-04-15T09:22:39;8.80;99.90
51884;DHT22;37915;53.254;6.598;2023-04-15T09:27:50;8.90;99.90
51884;DHT22;37915;53.254;6.598;2023-04-15T09:30:16;9.00;99.90
51884;DHT22;37915;53.254;6.598;2023-04-15T09:32:56;9.10;99.90
51884;DHT22;37915;53.254;6.598;2023-04-15T09:35:24;9.10;99.90
51884;DHT22;37915;53.254;6.598;2023-04-15T09:37:51;9.10;99.90
51884;DHT22;37915;53.254;6.598;2023-04-15T09:40:34;9.10;99.90
51884;DHT22;37915;53.254;6.598;2023-04-15T09:43:02;9.10;99.90
51884;DHT22;37915;53.254;6.598;2023-04-15T09:45:28;9.10;99.90
51884;DHT22;37915;53.254;6.598;2023-04-15T09:47:56;9.10;99.90
51884;DHT22;37915;53.254;6.598;2023-04-15T09:50:21;9.10;99.90
51884;DHT22;37915;53.254;6.598;2023-04-15T09:52:51;9.10;99.90
51884;DHT22;37915;53.254;6.598;2023-04-15T09:55:17;9.10;99.90
51884;DHT22;37915;53.254;6.598;2023-04-15T09:57:45;9.10;99.90
51884;DHT22;37915;53.254;6.598;2023-04-15T10:00:12;9.10;99.90
51884;DHT22;37915;53.254;6.598;2023-04-15T10:02:40;9.10;99.90
51884;DHT22;37915;53.254;6.598;2023-04-15T10:05:14;9.20;99.90
51884;DHT22;37915;53.254;6.598;2023-04-15T10:07:41;9.20;99.90
51884;DHT22;37915;53.254;6.598;2023-04-15T10:10:08;9.30;99.90
51884;DHT22;37915;53.254;6.598;2023-04-15T10:12:37;9.30;99.90
51884;DHT22;37915;53.254;6.598;2023-04-15T10:15:04;9.20;99.90
51884;DHT22;37915;53.254;6.598;2023-04-15T10:17:32;9.20;99.90
51884;DHT22;37915;53.254;6.598;2023-04-15T10:20:04;9.20;99.90
51884;DHT22;37915;53.254;6.598;2023-04-15T10:22:30;9.10;99.90
51884;DHT22;37915;53.254;6.598;2023-04-15T10:24:56;9.10;99.90
51884;DHT22;37915;53.254;6.598;2023-04-15T10:27:23;9.10;99.90
51884;DHT22;37915;53.254;6.598;2023-04-15T10:29:50;9.10;99.90
51884;DHT22;37915;53.254;6.598;2023-04-15T10:32:20;9.10;99.90
51884;DHT22;37915;53.254;6.598;2023-04-15T10:34:47;9.10;99.90
51884;DHT22;37915;53.254;6.598;2023-04-15T10:37:20;9.10;99.90
51884;DHT22;37915;53.254;6.598;2023-04-15T10:39:46;9.10;99.90
51884;DHT22;37915;53.254;6.598;2023-04-15T10:44:49;9.10;99.90
51884;DHT22;37915;53.254;6.598;2023-04-15T10:47:19;9.10;99.90
51884;DHT22;37915;53.254;6.598;2023-04-15T10:49:56;9.10;99.90
51884;DHT22;37915;53.254;6.598;2023-04-15T10:52:25;9.10;99.90
51884;DHT22;37915;53.254;6.598;2023-04-15T10:55:13;9.10;99.90
51884;DHT22;37915;53.254;6.598;2023-04-15T10:57:41;9.20;99.90
51884;DHT22;37915;53.254;6.598;2023-04-15T11:02:54;9.20;99.90
51884;DHT22;37915;53.254;6.598;2023-04-15T11:08:06;9.20;99.90
51884;DHT22;37915;53.254;6.598;2023-04-15T11:12:59;9.30;99.90
51884;DHT22;37915;53.254;6.598;2023-04-15T11:15:45;9.30;99.90
51884;DHT22;37915;53.254;6.598;2023-04-15T11:18:13;9.40;99.90
51884;DHT22;37915;53.254;6.598;2023-04-15T11:20:42;9.40;99.90
51884;DHT22;37915;53.254;6.598;2023-04-15T11:23:10;9.40;99.90
51884;DHT22;37915;53.254;6.598;2023-04-15T11:25:36;9.40;99.90
51884;DHT22;37915;53.254;6.598;2023-04-15T11:28:02;9.50;99.90
51884;DHT22;37915;53.254;6.598;2023-04-15T11:30:33;9.50;99.90
51884;DHT22;37915;53.254;6.598;2023-04-15T11:33:04;9.50;99.90
51884;DHT22;37915;53.254;6.598;2023-04-15T11:35:31;9.50;99.90
51884;DHT22;37915;53.254;6.598;2023-04-15T11:37:56;9.50;99.90
51884;DHT22;37915;53.254;6.598;2023-04-15T11:40:28;9.40;99.90
51884;DHT22;37915;53.254;6.598;2023-04-15T11:43:11;9.40;99.90
51884;DHT22;37915;53.254;6.598;2023-04-15T11:45:49;9.40;99.90
51884;DHT22;37915;53.254;6.598;2023-04-15T11:48:16;9.40;99.90
51884;DHT22;37915;53.254;6.598;2023-04-15T11:50:43;9.40;99.90
51884;DHT22;37915;53.254;6.598;2023-04-15T11:53:11;9.40;99.90
51884;DHT22;37915;53.254;6.598;2023-04-15T11:55:45;9.40;99.90
51884;DHT22;37915;53.254;6.598;2023-04-15T11:58:22;9.30;99.90
51884;DHT22;37915;53.254;6.598;2023-04-15T12:00:53;9.30;99.90
51884;DHT22;37915;53.254;6.598;2023-04-15T12:03:30;9.30;99.90
51884;DHT22;37915;53.254;6.598;2023-04-15T12:13:54;9.40;99.90
51884;DHT22;37915;53.254;6.598;2023-04-15T12:16:22;9.40;99.90
51884;DHT22;37915;53.254;6.598;2023-04-15T12:18:52;9.40;99.90
51884;DHT22;37915;53.254;6.598;2023-04-15T12:21:31;9.40;99.90
51884;DHT22;37915;53.254;6.598;2023-04-15T12:24:01;9.50;99.90
51884;DHT22;37915;53.254;6.598;2023-04-15T12:26:34;9.40;99.90
51884;DHT22;37915;53.254;6.598;2023-04-15T12:29:02;9.40;99.90
51884;DHT22;37915;53.254;6.598;2023-04-15T12:31:28;9.30;99.90
51884;DHT22;37915;53.254;6.598;2023-04-15T12:33:57;9.30;99.90
51884;DHT22;37915;53.254;6.598;2023-04-15T12:36:24;9.30;99.90
51884;DHT22;37915;53.254;6.598;2023-04-15T12:38:50;9.30;99.90
51884;DHT22;37915;53.254;6.598;2023-04-15T12:41:15;9.20;99.90
51884;DHT22;37915;53.254;6.598;2023-04-15T12:43:43;9.30;99.90
51884;DHT22;37915;53.254;6.598;2023-04-15T12:46:11;9.30;99.90
51884;DHT22;37915;53.254;6.598;2023-04-15T12:48:37;9.30;99.90
51884;DHT22;37915;53.254;6.598;2023-04-15T12:51:03;9.20;99.90
51884;DHT22;37915;53.254;6.598;2023-04-15T12:53:28;9.20;99.90
51884;DHT22;37915;53.254;6.598;2023-04-15T12:55:54;9.20;99.90
51884;DHT22;37915;53.254;6.598;2023-04-15T12:58:20;9.10;99.90
51884;DHT22;37915;53.254;6.598;2023-04-15T13:00:46;9.10;99.90
51884;DHT22;37915;53.254;6.598;2023-04-15T13:03:13;9.00;99.90
51884;DHT22;37915;53.254;6.598;2023-04-15T13:05:39;9.00;99.90
51884;DHT22;37915;53.254;6.598;2023-04-15T13:08:05;9.00;99.90
51884;DHT22;37915;53.254;6.598;2023-04-15T13:10:31;8.90;99.90
51884;DHT22;37915;53.254;6.598;2023-04-15T13:12:57;8.90;99.90
51884;DHT22;37915;53.254;6.598;2023-04-15T13:15:23;8.90;99.90
51884;DHT22;37915;53.254;6.598;2023-04-15T13:17:50;8.90;99.90
51884;DHT22;37915;53.254;6.598;2023-04-15T13:20:16;8.90;99.90
51884;DHT22;37915;53.254;6.598;2023-04-15T13:22:42;8.90;99.90
51884;DHT22;37915;53.254;6.598;2023-04-15T13:25:08;8.90;99.90
51884;DHT22;37915;53.254;6.598;2023-04-15T13:27:34;8.80;99.90
51884;DHT22;37915;53.254;6.598;2023-04-15T13:29:59;8.80;99.90
51884;DHT22;37915;53.254;6.598;2023-04-15T13:32:25;8.70;99.90
51884;DHT22;37915;53.254;6.598;2023-04-15T13:34:51;8.70;99.90
51884;DHT22;37915;53.254;6.598;2023-04-15T13:37:17;8.70;99.90
51884;DHT22;37915;53.254;6.598;2023-04-15T13:39:42;8.60;99.90
51884;DHT22;37915;53.254;6.598;2023-04-15T13:42:08;8.60;99.90
51884;DHT22;37915;53.254;6.598;2023-04-15T13:44:34;8.60;99.90
51884;DHT22;37915;53.254;6.598;2023-04-15T13:47:00;8.50;99.90
51884;DHT22;37915;53.254;6.598;2023-04-15T13:49:26;8.50;99.90
51884;DHT22;37915;53.254;6.598;2023-04-15T13:51:51;8.50;99.90
51884;DHT22;37915;53.254;6.598;2023-04-15T13:54:17;8.60;99.90
51884;DHT22;37915;53.254;6.598;2023-04-15T13:56:43;8.60;99.90
51884;DHT22;37915;53.254;6.598;2023-04-15T13:59:09;8.60;99.90
51884;DHT22;37915;53.254;6.598;2023-04-15T14:01:34;8.60;99.90
51884;DHT22;37915;53.254;6.598;2023-04-15T14:04:00;8.60;99.90
51884;DHT22;37915;53.254;6.598;2023-04-15T14:06:27;8.60;99.90
51884;DHT22;37915;53.254;6.598;2023-04-15T14:08:53;8.50;99.90
51884;DHT22;37915;53.254;6.598;2023-04-15T14:11:19;8.50;99.90
51884;DHT22;37915;53.254;6.598;2023-04-15T14:13:45;8.50;99.90
51884;DHT22;37915;53.254;6.598;2023-04-15T14:16:10;8.60;99.90
51884;DHT22;37915;53.254;6.598;2023-04-15T14:18:36;8.60;99.90
51884;DHT22;37915;53.254;6.598;2023-04-15T14:21:02;8.60;99.90
51884;DHT22;37915;53.254;6.598;2023-04-15T14:23:28;8.50;99.90
51884;DHT22;37915;53.254;6.598;2023-04-15T14:25:53;8.50;99.90
51884;DHT22;37915;53.254;6.598;2023-04-15T14:28:19;8.50;99.90
51884;DHT22;37915;53.254;6.598;2023-04-15T14:30:45;8.50;99.90
51884;DHT22;37915;53.254;6.598;2023-04-15T14:33:11;8.50;99.90
51884;DHT22;37915;53.254;6.598;2023-04-15T14:35:37;8.40;99.90
51884;DHT22;37915;53.254;6.598;2023-04-15T14:38:03;8.40;99.90
51884;DHT22;37915;53.254;6.598;2023-04-15T14:40:31;8.40;99.90
51884;DHT22;37915;53.254;6.598;2023-04-15T14:43:02;8.40;99.90
51884;DHT22;37915;53.254;6.598;2023-04-15T14:45:29;8.30;99.90
51884;DHT22;37915;53.254;6.598;2023-04-15T14:47:55;8.30;99.90
51884;DHT22;37915;53.254;6.598;2023-04-15T14:50:21;8.20;99.90
51884;DHT22;37915;53.254;6.598;2023-04-15T14:52:49;8.20;99.90
51884;DHT22;37915;53.254;6.598;2023-04-15T14:55:14;8.20;99.90
51884;DHT22;37915;53.254;6.598;2023-04-15T14:57:43;8.10;99.90
51884;DHT22;37915;53.254;6.598;2023-04-15T15:00:10;8.10;99.90
51884;DHT22;37915;53.254;6.598;2023-04-15T15:02:37;8.10;99.90
51884;DHT22;37915;53.254;6.598;2023-04-15T15:05:03;8.10;99.90
51884;DHT22;37915;53.254;6.598;2023-04-15T15:07:28;8.10;99.90
51884;DHT22;37915;53.254;6.598;2023-04-15T15:09:54;8.10;99.90
51884;DHT22;37915;53.254;6.598;2023-04-15T15:12:21;8.10;99.90
51884;DHT22;37915;53.254;6.598;2023-04-15T15:14:49;8.00;99.90
51884;DHT22;37915;53.254;6.598;2023-04-15T15:17:15;8.00;99.90
51884;DHT22;37915;53.254;6.598;2023-04-15T15:19:41;8.00;99.90
51884;DHT22;37915;53.254;6.598;2023-04-15T15:22:06;8.10;99.90
51884;DHT22;37915;53.254;6.598;2023-04-15T15:24:32;8.00;99.90
51884;DHT22;37915;53.254;6.598;2023-04-15T15:26:58;8.10;99.90
51884;DHT22;37915;53.254;6.598;2023-04-15T15:29:23;8.10;99.90
51884;DHT22;37915;53.254;6.598;2023-04-15T15:31:49;8.10;99.90
51884;DHT22;37915;53.254;6.598;2023-04-15T15:34:18;8.10;99.90
51884;DHT22;37915;53.254;6.598;2023-04-15T15:36:49;8.00;99.90
51884;DHT22;37915;53.254;6.598;2023-04-15T15:39:15;8.00;99.90
51884;DHT22;37915;53.254;6.598;2023-04-15T15:41:41;8.00;99.90
51884;DHT22;37915;53.254;6.598;2023-04-15T15:44:06;8.00;99.90
51884;DHT22;37915;53.254;6.598;2023-04-15T15:46:35;7.90;99.90
51884;DHT22;37915;53.254;6.598;2023-04-15T15:49:03;7.90;99.90
51884;DHT22;37915;53.254;6.598;2023-04-15T15:51:29;7.90;99.90
51884;DHT22;37915;53.254;6.598;2023-04-15T15:53:56;8.00;99.90
51884;DHT22;37915;53.254;6.598;2023-04-15T15:56:22;7.90;99.90
51884;DHT22;37915;53.254;6.598;2023-04-15T15:58:57;7.90;99.90
51884;DHT22;37915;53.254;6.598;2023-04-15T16:01:26;8.00;99.90
51884;DHT22;37915;53.254;6.598;2023-04-15T16:03:51;7.90;99.90